Terminal Aerodrome Forecast
Issued by NWS

Home | Current Version | Previous Version | Text Only | Print | Product List | Glossary On
Versions: 1 2 3 4 5 6 7 8 9 10 11 12 13 14 15 16 17 18 19 20 21 22 23 24 25 26 27 28 29 30 31 32 33 34
000
FTPQ31 PGUM 012330
TAFGUM
TAF

TAF
PTPN 012330Z 0200/0224 VRB10KT P6SM -SHRA VCSH BKN016 BKN050 OVC100
      TEMPO 0200/0203 2SM +TSRA BKN015CB BKN040 OVC080
     FM020400 28012KT P6SM VCSH SCT016 BKN050 BKN120=

USA.gov is the U.S. government's official web portal to all federal, state and local government web resources and services.